createdAt,value
2019-05-29T00:01:50.385Z,74.13
2019-05-29T00:07:50.371Z,72.88
2019-05-29T00:13:50.365Z,72.84
2019-05-29T00:19:50.287Z,72.50
2019-05-29T00:25:50.287Z,71.80
2019-05-29T00:31:50.297Z,71.95
2019-05-29T00:37:50.264Z,72.19
2019-05-29T00:43:50.370Z,72.91
2019-05-29T00:49:50.375Z,73.11
2019-05-29T00:55:50.310Z,73.46
2019-05-29T01:01:50.345Z,73.50
2019-05-29T01:07:50.309Z,73.64
2019-05-29T01:13:51.334Z,74.16
2019-05-29T01:19:50.588Z,73.96
2019-05-29T01:25:50.373Z,73.56
2019-05-29T01:31:50.336Z,74.19
2019-05-29T01:37:50.306Z,74.17
2019-05-29T01:43:50.467Z,74.96
2019-05-29T01:49:50.438Z,74.78
2019-05-29T01:55:50.397Z,74.19
2019-05-29T02:01:50.358Z,75.07
2019-05-29T02:07:50.378Z,75.28
2019-05-29T02:13:50.332Z,75.45
2019-05-29T02:19:50.351Z,75.04
2019-05-29T02:25:50.352Z,75.31
2019-05-29T02:31:50.391Z,75.00
2019-05-29T02:37:50.434Z,74.74
2019-05-29T02:43:50.398Z,75.26
2019-05-29T02:49:50.406Z,75.32
2019-05-29T02:55:50.396Z,75.74
2019-05-29T03:01:50.406Z,76.52
2019-05-29T03:07:50.401Z,76.47
2019-05-29T03:13:50.424Z,77.05
2019-05-29T03:19:50.433Z,77.29
2019-05-29T03:25:50.421Z,77.18
2019-05-29T03:31:50.451Z,77.49
2019-05-29T03:37:50.395Z,77.80
2019-05-29T03:43:50.502Z,77.75
2019-05-29T03:49:50.417Z,77.75
2019-05-29T03:55:50.431Z,78.38
2019-05-29T04:01:50.394Z,78.13
2019-05-29T04:07:50.410Z,78.37
2019-05-29T04:13:50.397Z,78.49
2019-05-29T04:19:50.427Z,78.36
2019-05-29T04:25:50.489Z,78.74
2019-05-29T04:31:50.523Z,78.50
2019-05-29T04:37:50.480Z,78.76
2019-05-29T04:43:50.530Z,78.95
2019-05-29T04:49:50.456Z,78.98
2019-05-29T05:09:39.638Z,79.15
2019-05-29T05:15:40.159Z,78.55
2019-05-29T05:21:40.235Z,78.99
2019-05-29T05:27:39.102Z,78.99
2019-05-29T05:33:39.069Z,78.64
2019-05-29T05:39:39.154Z,78.68
2019-05-29T05:45:39.246Z,79.57
2019-05-29T05:51:42.468Z,80.03
2019-05-29T05:57:39.745Z,80.06
2019-05-29T06:03:40.604Z,80.39
2019-05-29T06:09:40.320Z,79.97
2019-05-29T06:15:39.098Z,79.82
2019-05-29T06:21:39.262Z,80.86
2019-05-29T06:27:39.326Z,79.07
2019-05-29T06:33:39.496Z,78.98
2019-05-29T06:39:39.662Z,78.14
2019-05-29T06:45:39.985Z,78.30
2019-05-29T06:51:41.342Z,77.48
2019-05-29T06:57:40.281Z,74.64
2019-05-29T07:03:39.677Z,74.66
2019-05-29T07:09:39.196Z,74.93
2019-05-29T07:15:40.499Z,74.82
2019-05-29T07:21:40.460Z,74.86
2019-05-29T07:27:39.185Z,73.93
2019-05-29T07:33:39.203Z,72.80
2019-05-29T07:39:39.445Z,72.25
2019-05-29T07:45:40.666Z,71.43
2019-05-29T07:51:40.488Z,71.96
2019-05-29T07:57:40.688Z,72.61
2019-05-29T08:03:39.409Z,71.99
2019-05-29T08:09:39.358Z,71.02
2019-05-29T08:15:54.072Z,70.15
2019-05-29T08:21:40.977Z,67.75
2019-05-29T08:27:40.461Z,67.08
2019-05-29T08:33:39.184Z,66.32
2019-05-29T08:39:39.231Z,67.35
2019-05-29T08:45:39.313Z,65.36
2019-05-29T08:51:39.369Z,63.38
2019-05-29T08:57:39.252Z,64.83
2019-05-29T09:03:39.197Z,64.33
2019-05-29T09:09:39.308Z,64.09
2019-05-29T09:15:39.233Z,64.09
2019-05-29T09:21:39.345Z,65.47
2019-05-29T09:27:39.190Z,63.33
2019-05-29T09:33:39.222Z,64.73
2019-05-29T09:39:39.224Z,67.06
2019-05-29T09:45:39.218Z,65.66
2019-05-29T09:51:39.318Z,65.07
2019-05-29T09:57:39.226Z,63.36
2019-05-29T10:03:39.306Z,64.67
2019-05-29T10:09:39.280Z,62.50
2019-05-29T10:15:39.229Z,61.93
2019-05-29T10:21:41.005Z,60.63
2019-05-29T10:27:39.253Z,60.15
2019-05-29T10:33:39.323Z,59.19
2019-05-29T10:39:39.323Z,57.79
2019-05-29T10:45:39.285Z,56.93
2019-05-29T10:51:54.626Z,57.08
2019-05-29T10:57:39.339Z,59.59
2019-05-29T11:03:39.337Z,60.86
2019-05-29T11:09:44.586Z,60.25
2019-05-29T11:15:39.376Z,60.50
2019-05-29T11:21:39.340Z,58.65
2019-05-29T11:27:39.297Z,56.90
2019-05-29T11:33:39.299Z,58.12
2019-05-29T11:39:39.315Z,57.04
2019-05-29T11:45:39.366Z,55.89
2019-05-29T11:51:43.511Z,54.00
2019-05-29T11:57:39.810Z,54.20
2019-05-29T12:04:06.254Z,52.05
2019-05-29T12:09:39.360Z,50.93
2019-05-29T12:15:39.443Z,51.70
2019-05-29T12:21:42.611Z,50.96
2019-05-29T12:27:39.541Z,48.51
2019-05-29T12:33:39.351Z,47.85
2019-05-29T12:39:39.493Z,46.80
2019-05-29T12:45:39.430Z,48.07
2019-05-29T12:51:39.518Z,44.85
2019-05-29T12:57:39.937Z,48.10
2019-05-29T13:03:39.498Z,48.91
2019-05-29T13:09:39.693Z,49.07
2019-05-29T13:15:39.419Z,53.67
2019-05-29T13:21:39.434Z,56.95
2019-05-29T13:27:39.399Z,59.04
2019-05-29T13:33:39.439Z,57.65
2019-05-29T13:39:39.408Z,58.88
2019-05-29T13:45:39.438Z,58.68
2019-05-29T13:51:39.424Z,58.28
2019-05-29T13:57:39.966Z,58.46
2019-05-29T14:03:39.427Z,57.37
2019-05-29T14:09:39.474Z,56.91
2019-05-29T14:15:39.469Z,56.35
2019-05-29T14:21:39.482Z,56.64
2019-05-29T14:27:39.459Z,56.61
2019-05-29T14:33:39.440Z,56.25
2019-05-29T14:39:39.447Z,54.54
2019-05-29T14:45:39.686Z,53.62
2019-05-29T14:51:39.788Z,52.88
2019-05-29T14:57:39.465Z,53.23
2019-05-29T15:03:39.477Z,51.98
2019-05-29T15:09:39.757Z,49.13
2019-05-29T15:15:39.491Z,48.69
2019-05-29T15:21:39.547Z,51.01
2019-05-29T15:27:39.505Z,50.66
2019-05-29T15:33:39.480Z,47.83
2019-05-29T15:39:39.560Z,49.34
2019-05-29T15:45:39.610Z,49.44
2019-05-29T15:51:39.627Z,49.86
2019-05-29T15:57:39.519Z,47.29
2019-05-29T16:03:39.529Z,45.77
2019-05-29T16:09:39.547Z,44.86
2019-05-29T16:15:39.568Z,46.11
2019-05-29T16:21:39.663Z,47.42
2019-05-29T16:27:39.585Z,47.63
2019-05-29T16:33:39.612Z,48.55
2019-05-29T16:39:39.545Z,48.51
2019-05-29T16:45:39.640Z,47.24
2019-05-29T16:51:41.983Z,46.73
2019-05-29T16:57:39.726Z,45.88
2019-05-29T17:03:39.565Z,46.65
2019-05-29T17:09:39.662Z,48.27
2019-05-29T17:15:39.599Z,49.29
2019-05-29T17:21:39.609Z,50.04
2019-05-29T17:27:39.640Z,51.09
2019-05-29T17:33:39.586Z,48.49
2019-05-29T17:39:39.633Z,49.41
2019-05-29T17:45:39.682Z,51.14
2019-05-29T17:51:39.744Z,53.07
2019-05-29T17:57:39.616Z,53.25
2019-05-29T18:03:39.649Z,54.08
2019-05-29T18:09:39.731Z,56.20
2019-05-29T18:15:39.696Z,57.05
2019-05-29T18:21:39.645Z,58.07
2019-05-29T18:27:40.831Z,58.35
2019-05-29T18:33:39.657Z,60.12
2019-05-29T18:39:39.639Z,60.01
2019-05-29T18:45:39.644Z,60.29
2019-05-29T18:51:39.647Z,60.94
2019-05-29T18:57:39.782Z,61.03
2019-05-29T19:03:40.656Z,61.37
2019-05-29T19:09:39.705Z,62.00
2019-05-29T19:15:39.759Z,62.56
2019-05-29T19:21:39.743Z,62.40
2019-05-29T19:27:42.093Z,62.12
2019-05-29T19:33:40.069Z,62.90
2019-05-29T19:39:39.767Z,62.87
2019-05-29T19:45:39.685Z,63.76
2019-05-29T19:51:39.750Z,64.76
2019-05-29T19:57:54.892Z,65.20
2019-05-29T20:03:39.715Z,66.05
2019-05-29T20:09:39.753Z,66.94
2019-05-29T20:15:39.719Z,67.36
2019-05-29T20:21:39.688Z,67.28
2019-05-29T20:27:39.746Z,67.32
2019-05-29T20:33:39.735Z,68.71
2019-05-29T20:39:39.773Z,69.94
2019-05-29T20:45:39.813Z,70.00
2019-05-29T20:51:40.359Z,70.35
2019-05-29T20:57:40.122Z,69.33
2019-05-29T21:03:40.898Z,69.75
2019-05-29T21:09:41.068Z,69.57
2019-05-29T21:15:39.800Z,69.90
2019-05-29T21:21:40.914Z,70.36
2019-05-29T21:27:43.828Z,71.34
2019-05-29T21:33:43.488Z,70.95
2019-05-29T21:39:40.269Z,71.38
2019-05-29T21:45:40.962Z,71.45
2019-05-29T21:51:39.822Z,71.26
2019-05-29T21:57:42.358Z,71.37
2019-05-29T22:03:40.317Z,71.70
2019-05-29T22:09:39.790Z,72.58
2019-05-29T22:15:39.775Z,73.23
2019-05-29T22:21:39.867Z,73.42
2019-05-29T22:27:39.871Z,74.30
2019-05-29T22:33:39.805Z,74.64
2019-05-29T22:39:39.791Z,74.84
2019-05-29T22:45:39.809Z,75.38
2019-05-29T22:51:39.802Z,75.70
2019-05-29T22:57:39.855Z,76.04
2019-05-29T23:03:39.829Z,77.25
2019-05-29T23:09:39.917Z,77.11
2019-05-29T23:15:39.818Z,78.14
2019-05-29T23:21:39.840Z,77.52
2019-05-29T23:27:39.883Z,79.16
2019-05-29T23:33:39.917Z,78.66
2019-05-29T23:39:39.845Z,79.12
2019-05-29T23:45:39.834Z,80.36
2019-05-29T23:51:40.002Z,81.00
2019-05-29T23:57:39.851Z,81.42
